createdAt,value
2022-08-04T00:01:29.677Z,1.48
2022-08-04T00:04:01.404Z,1.77
2022-08-04T00:06:46.721Z,1.70
2022-08-04T00:09:21.944Z,1.42
2022-08-04T00:11:49.631Z,1.80
2022-08-04T00:14:16.625Z,2.15
2022-08-04T00:16:43.844Z,1.98
2022-08-04T00:19:11.916Z,1.70
2022-08-04T00:21:39.270Z,2.00
2022-08-04T00:24:11.103Z,2.17
2022-08-04T00:26:39.801Z,1.95
2022-08-04T00:29:06.238Z,2.30
2022-08-04T00:31:56.154Z,2.38
2022-08-04T00:34:19.837Z,1.60
2022-08-04T00:36:46.624Z,2.00
2022-08-04T00:39:13.619Z,1.92
2022-08-04T00:42:00.318Z,2.30
2022-08-04T00:44:26.754Z,2.30
2022-08-04T00:47:02.698Z,1.90
2022-08-04T00:49:47.767Z,2.25
2022-08-04T00:52:32.507Z,1.92
2022-08-04T00:55:09.076Z,2.40
2022-08-04T00:57:48.008Z,2.50
2022-08-04T01:00:15.466Z,3.25
2022-08-04T01:02:51.133Z,2.22
2022-08-04T01:05:22.340Z,2.00
2022-08-04T01:07:55.753Z,2.22
2022-08-04T01:10:31.161Z,2.28
2022-08-04T01:13:00.718Z,2.78
2022-08-04T01:15:59.797Z,2.20
2022-08-04T01:18:42.599Z,2.28
2022-08-04T01:21:12.010Z,2.58
2022-08-04T01:23:41.555Z,2.50
2022-08-04T01:26:42.395Z,2.15
2022-08-04T01:29:15.804Z,2.35
2022-08-04T01:31:42.597Z,2.78
2022-08-04T01:34:11.946Z,2.28
2022-08-04T01:36:41.135Z,3.03
2022-08-04T01:39:27.787Z,3.10
2022-08-04T01:41:57.958Z,3.10
2022-08-04T01:44:27.367Z,2.42
2022-08-04T01:46:53.830Z,3.03
2022-08-04T01:49:21.453Z,2.90
2022-08-04T01:51:49.834Z,3.03
2022-08-04T01:54:17.683Z,2.30
2022-08-04T01:56:46.022Z,2.90
2022-08-04T01:59:15.384Z,2.85
2022-08-04T02:01:41.885Z,3.05
2022-08-04T02:04:20.776Z,2.78
2022-08-04T02:06:58.879Z,2.78
2022-08-04T02:09:34.142Z,2.85
2022-08-04T02:12:40.761Z,2.03
2022-08-04T02:15:07.180Z,2.22
2022-08-04T02:17:36.378Z,2.30
2022-08-04T02:20:09.242Z,2.92
2022-08-04T02:22:41.213Z,2.47
2022-08-04T02:25:08.946Z,2.60
2022-08-04T02:28:00.122Z,2.70
2022-08-04T02:30:30.810Z,2.90
2022-08-04T02:33:01.985Z,3.15
2022-08-04T02:35:29.196Z,3.72
2022-08-04T02:38:03.734Z,3.28
2022-08-04T02:40:30.578Z,3.55
2022-08-04T02:42:58.150Z,2.97
2022-08-04T02:45:25.792Z,3.00
2022-08-04T02:48:18.410Z,2.80
2022-08-04T02:50:40.875Z,2.95
2022-08-04T02:53:10.493Z,3.42
2022-08-04T02:55:37.907Z,3.10
2022-08-04T02:58:05.136Z,3.15
2022-08-04T03:00:32.020Z,2.97
2022-08-04T03:02:58.501Z,3.15
2022-08-04T03:05:28.007Z,3.45
2022-08-04T03:08:04.061Z,3.20
2022-08-04T03:10:42.562Z,3.38
2022-08-04T03:13:09.554Z,3.67
2022-08-04T03:15:57.834Z,3.72
2022-08-04T03:18:33.598Z,2.88
2022-08-04T03:21:18.905Z,3.03
2022-08-04T03:24:04.222Z,3.38
2022-08-04T03:26:49.275Z,3.03
2022-08-04T03:29:43.509Z,2.90
2022-08-04T03:32:09.918Z,2.67
2022-08-04T03:34:54.948Z,3.42
2022-08-04T03:37:27.661Z,3.78
2022-08-04T03:39:57.078Z,2.97
2022-08-04T03:42:50.070Z,3.50
2022-08-04T03:45:30.093Z,3.10
2022-08-04T03:48:08.605Z,3.00
2022-08-04T03:50:41.310Z,2.78
2022-08-04T03:53:22.245Z,3.28
2022-08-04T03:55:51.438Z,3.53
2022-08-04T03:58:17.883Z,2.97
2022-08-04T04:01:03.074Z,3.22
2022-08-04T04:03:47.935Z,2.72
2022-08-04T04:06:29.266Z,2.83
2022-08-04T04:08:59.413Z,3.15
2022-08-04T04:11:31.990Z,3.10
2022-08-04T04:14:17.336Z,3.85
2022-08-04T04:16:50.096Z,3.55
2022-08-04T04:19:22.720Z,3.15
2022-08-04T04:22:02.193Z,2.92
2022-08-04T04:24:47.300Z,3.20
2022-08-04T04:27:28.939Z,3.28
2022-08-04T04:30:04.828Z,3.25
2022-08-04T04:32:31.239Z,3.78
2022-08-04T04:35:07.603Z,3.20
2022-08-04T04:37:34.956Z,2.78
2022-08-04T04:40:07.475Z,3.17
2022-08-04T04:42:52.731Z,3.10
2022-08-04T04:45:37.898Z,3.30
2022-08-04T04:48:10.570Z,3.30
2022-08-04T04:53:11.145Z,2.80
2022-08-04T04:55:47.791Z,3.25
2022-08-04T04:58:17.012Z,2.72
2022-08-04T05:00:59.023Z,3.03
2022-08-04T05:03:30.412Z,2.33
2022-08-04T05:05:59.919Z,3.20
2022-08-04T05:08:44.750Z,3.25
2022-08-04T05:11:27.533Z,3.20
2022-08-04T05:14:36.505Z,3.25
2022-08-04T05:16:46.389Z,2.88
2022-08-04T05:19:12.897Z,3.20
2022-08-04T05:21:47.074Z,3.08
2022-08-04T05:24:15.395Z,3.33
2022-08-04T05:26:45.037Z,3.45
2022-08-04T05:29:13.901Z,2.97
2022-08-04T05:31:46.748Z,3.20
2022-08-04T05:34:15.658Z,2.83
2022-08-04T05:36:44.119Z,2.90
2022-08-04T05:39:13.459Z,3.10
2022-08-04T05:41:45.355Z,3.33
2022-08-04T05:44:16.689Z,2.97
2022-08-04T05:46:44.439Z,2.53
2022-08-04T05:49:21.896Z,2.95
2022-08-04T05:51:48.823Z,2.35
2022-08-04T05:54:16.918Z,2.80
2022-08-04T05:56:43.577Z,2.40
2022-08-04T05:59:11.321Z,2.50
2022-08-04T06:01:55.532Z,2.63
2022-08-04T06:04:27.070Z,2.70
2022-08-04T06:06:54.526Z,2.33
2022-08-04T06:09:20.980Z,3.00
2022-08-04T06:12:02.008Z,2.40
2022-08-04T06:14:38.228Z,2.25
2022-08-04T06:17:05.637Z,2.92
2022-08-04T06:20:03.530Z,2.72
2022-08-04T06:22:41.043Z,2.00
2022-08-04T06:25:08.893Z,2.30
2022-08-04T06:27:35.714Z,2.83
2022-08-04T06:30:02.685Z,2.40
2022-08-04T06:32:41.650Z,2.40
2022-08-04T06:35:08.919Z,2.50
2022-08-04T06:37:43.179Z,2.13
2022-08-04T06:40:31.459Z,2.33
2022-08-04T06:42:58.027Z,2.15
2022-08-04T06:45:24.875Z,2.40
2022-08-04T06:47:51.974Z,2.58
2022-08-04T06:51:24.569Z,2.42
2022-08-04T06:53:06.188Z,2.85
2022-08-04T06:55:33.581Z,2.08
2022-08-04T06:58:03.263Z,2.65
2022-08-04T07:00:30.695Z,2.85
2022-08-04T07:02:57.982Z,2.50
2022-08-04T07:05:24.514Z,2.47
2022-08-04T07:07:56.745Z,2.38
2022-08-04T07:10:27.716Z,2.58
2022-08-04T07:12:55.990Z,2.47
2022-08-04T07:15:22.537Z,2.50
2022-08-04T07:17:52.251Z,2.35
2022-08-04T07:20:33.877Z,2.42
2022-08-04T07:23:02.070Z,2.38
2022-08-04T07:25:28.891Z,2.55
2022-08-04T07:28:15.388Z,2.58
2022-08-04T07:30:43.954Z,2.38
2022-08-04T07:33:10.869Z,2.33
2022-08-04T07:36:09.113Z,2.58
2022-08-04T07:38:27.711Z,2.30
2022-08-04T07:40:54.884Z,1.95
2022-08-04T07:43:21.530Z,2.15
2022-08-04T07:45:48.233Z,2.53
2022-08-04T07:48:15.571Z,2.30
2022-08-04T07:50:42.846Z,1.90
2022-08-04T07:53:55.283Z,2.15
2022-08-04T07:55:56.192Z,1.88
2022-08-04T07:58:22.786Z,2.08
2022-08-04T08:00:49.282Z,1.60
2022-08-04T08:03:16.349Z,1.77
2022-08-04T08:06:17.601Z,1.92
2022-08-04T08:08:37.736Z,1.85
2022-08-04T08:11:04.336Z,1.77
2022-08-04T08:13:33.221Z,1.63
2022-08-04T08:16:00.894Z,1.15
2022-08-04T08:18:27.420Z,1.50
2022-08-04T08:20:53.984Z,1.55
2022-08-04T08:23:21.664Z,1.48
2022-08-04T08:25:48.494Z,1.42
2022-08-04T08:28:16.835Z,1.50
2022-08-04T08:30:43.566Z,1.50
2022-08-04T08:33:12.573Z,1.30
2022-08-04T08:35:51.110Z,1.88
2022-08-04T08:38:26.795Z,1.30
2022-08-04T08:40:58.934Z,1.60
2022-08-04T08:44:04.399Z,1.65
2022-08-04T08:46:48.838Z,1.60
2022-08-04T08:50:00.805Z,1.88
2022-08-04T08:53:01.286Z,2.00
2022-08-04T08:55:35.581Z,1.50
2022-08-04T09:00:57.687Z,1.33
2022-08-04T09:03:24.150Z,1.25
2022-08-04T09:06:09.492Z,1.30
2022-08-04T09:08:42.569Z,1.48
2022-08-04T09:13:54.275Z,1.10
2022-08-04T09:16:42.601Z,1.48
2022-08-04T09:19:09.397Z,1.52
2022-08-04T09:21:50.241Z,1.50
2022-08-04T09:24:53.202Z,1.23
2022-08-04T09:27:38.070Z,1.77
2022-08-04T09:30:06.146Z,1.50
2022-08-04T09:32:32.513Z,1.30
2022-08-04T09:35:19.235Z,1.60
2022-08-04T09:37:52.746Z,1.50
2022-08-04T09:43:06.036Z,1.50
2022-08-04T09:45:44.018Z,1.70
2022-08-04T09:48:25.078Z,1.40
2022-08-04T09:50:58.127Z,1.50
2022-08-04T09:53:36.621Z,1.25
2022-08-04T09:56:06.293Z,1.42
2022-08-04T09:58:51.562Z,1.63
2022-08-04T10:01:23.076Z,1.48
2022-08-04T10:03:52.134Z,1.23
2022-08-04T10:06:31.678Z,1.67
2022-08-04T10:09:07.080Z,1.25
2022-08-04T10:11:56.038Z,1.20
2022-08-04T10:14:40.643Z,1.10
2022-08-04T10:17:16.627Z,1.48
2022-08-04T10:19:43.162Z,1.38
2022-08-04T10:22:29.624Z,1.20
2022-08-04T10:26:05.008Z,1.38
2022-08-04T10:28:12.034Z,1.52
2022-08-04T10:30:40.530Z,1.10
2022-08-04T10:33:10.349Z,1.33
2022-08-04T10:35:50.575Z,1.30
2022-08-04T10:38:22.920Z,1.20
2022-08-04T10:41:06.004Z,1.55
2022-08-04T10:43:35.512Z,1.08
2022-08-04T10:46:05.539Z,1.33
2022-08-04T10:48:51.599Z,1.35
2022-08-04T10:51:27.262Z,1.58
2022-08-04T10:53:57.271Z,1.27
2022-08-04T10:56:41.853Z,1.42
2022-08-04T10:59:29.957Z,1.40
2022-08-04T11:02:03.557Z,1.83
2022-08-04T11:04:40.062Z,1.42
2022-08-04T11:07:07.966Z,1.40
2022-08-04T11:09:34.923Z,1.50
2022-08-04T11:12:05.057Z,1.42
2022-08-04T11:14:33.964Z,1.30
2022-08-04T11:17:07.849Z,1.10
2022-08-04T11:19:44.844Z,1.20
2022-08-04T11:22:15.152Z,0.95
2022-08-04T11:24:46.106Z,1.10
2022-08-04T11:27:15.055Z,1.42
2022-08-04T11:30:01.392Z,1.40
2022-08-04T11:32:46.629Z,1.38
2022-08-04T11:35:27.921Z,1.65
2022-08-04T11:38:06.561Z,1.50
2022-08-04T11:41:02.085Z,1.15
2022-08-04T11:43:56.539Z,1.30
2022-08-04T11:46:34.522Z,1.60
2022-08-04T11:49:03.381Z,1.65
2022-08-04T11:51:30.978Z,1.55
2022-08-04T11:53:57.526Z,1.48
2022-08-04T11:56:36.908Z,1.30
2022-08-04T11:59:05.266Z,2.10
2022-08-04T12:01:38.330Z,1.50
2022-08-04T12:04:07.747Z,1.60
2022-08-04T12:06:34.248Z,1.80
2022-08-04T12:09:07.405Z,1.50
2022-08-04T12:11:36.807Z,1.45
2022-08-04T12:14:06.189Z,1.40
2022-08-04T12:16:38.766Z,1.58
2022-08-04T12:19:09.748Z,1.10
2022-08-04T12:21:46.586Z,1.40
2022-08-04T12:24:58.492Z,1.42
2022-08-04T12:27:30.549Z,1.33
2022-08-04T12:30:58.484Z,1.65
2022-08-04T12:33:05.538Z,1.20
2022-08-04T12:35:57.555Z,1.50
2022-08-04T12:38:42.936Z,1.40
2022-08-04T12:41:10.598Z,1.20
2022-08-04T12:43:37.014Z,1.52
2022-08-04T12:46:07.683Z,1.17
2022-08-04T12:48:36.229Z,1.40
2022-08-04T12:51:03.450Z,1.38
2022-08-04T12:53:33.822Z,1.40
2022-08-04T12:56:23.923Z,1.30
2022-08-04T12:58:52.263Z,1.40
2022-08-04T13:02:07.977Z,1.48
2022-08-04T13:04:15.395Z,1.33
2022-08-04T13:06:42.830Z,1.38
2022-08-04T13:09:18.532Z,1.30
2022-08-04T13:11:50.475Z,1.60
2022-08-04T13:14:27.084Z,1.65
2022-08-04T13:17:01.196Z,1.70
2022-08-04T13:19:30.982Z,1.40
2022-08-04T13:22:03.136Z,1.50
2022-08-04T13:24:31.295Z,1.50
2022-08-04T13:27:08.989Z,1.67
2022-08-04T13:30:00.410Z,1.50
2022-08-04T13:32:29.902Z,1.25
2022-08-04T13:34:57.371Z,1.20
2022-08-04T13:37:26.826Z,1.60
2022-08-04T13:39:56.004Z,1.33
2022-08-04T13:42:24.018Z,1.30
2022-08-04T13:44:54.527Z,1.02
2022-08-04T13:47:22.571Z,1.10
2022-08-04T13:50:23.541Z,1.60
2022-08-04T13:52:51.851Z,1.20
2022-08-04T13:55:30.027Z,1.30
2022-08-04T13:57:59.259Z,1.30
2022-08-04T14:00:29.472Z,1.20
2022-08-04T14:03:01.615Z,1.20
2022-08-04T14:05:35.095Z,1.17
2022-08-04T14:08:08.822Z,1.48
2022-08-04T14:10:35.956Z,1.20
2022-08-04T14:13:03.857Z,1.38
2022-08-04T14:16:01.872Z,1.58
2022-08-04T14:18:21.029Z,1.25
2022-08-04T14:21:05.906Z,1.40
2022-08-04T14:23:46.933Z,1.33
2022-08-04T14:26:18.488Z,1.23
2022-08-04T14:29:09.690Z,1.52
2022-08-04T14:31:31.697Z,1.48
2022-08-04T14:34:04.444Z,1.40
2022-08-04T14:36:49.604Z,1.13
2022-08-04T14:39:38.517Z,1.30
2022-08-04T14:42:05.671Z,1.50
2022-08-04T14:44:32.236Z,1.35
2022-08-04T14:46:59.299Z,1.10
2022-08-04T14:49:26.849Z,1.30
2022-08-04T14:51:53.394Z,1.15
2022-08-04T14:54:26.783Z,1.50
2022-08-04T14:56:54.652Z,1.33
2022-08-04T14:59:21.424Z,1.45
2022-08-04T15:02:00.431Z,1.38
2022-08-04T15:04:28.330Z,1.33
2022-08-04T15:06:54.883Z,1.42
2022-08-04T15:09:21.501Z,1.63
2022-08-04T15:11:47.889Z,1.40
2022-08-04T15:14:35.859Z,1.27
2022-08-04T15:17:02.226Z,1.45
2022-08-04T15:19:29.294Z,1.40
2022-08-04T15:22:00.821Z,1.00
2022-08-04T15:24:27.330Z,1.38
2022-08-04T15:26:57.417Z,1.33
2022-08-04T15:29:26.467Z,1.17
2022-08-04T15:32:05.592Z,1.27
2022-08-04T15:34:45.454Z,1.50
2022-08-04T15:37:15.422Z,1.20
2022-08-04T15:39:46.945Z,1.40
2022-08-04T15:42:18.874Z,1.13
2022-08-04T15:44:50.364Z,1.50
2022-08-04T15:47:17.777Z,1.33
2022-08-04T15:49:44.917Z,1.35
2022-08-04T15:52:12.933Z,1.25
2022-08-04T15:54:39.506Z,1.15
2022-08-04T15:57:09.410Z,1.30
2022-08-04T15:59:54.658Z,1.33
2022-08-04T16:02:36.652Z,6.80
2022-08-04T16:05:17.242Z,1.08
2022-08-04T16:07:56.778Z,1.40
2022-08-04T16:10:35.030Z,0.93
2022-08-04T16:13:04.436Z,6.10
2022-08-04T16:15:38.181Z,1.65
2022-08-04T16:18:04.736Z,1.20
2022-08-04T16:20:32.448Z,1.25
2022-08-04T16:23:03.230Z,1.35
2022-08-04T16:25:46.291Z,1.13
2022-08-04T16:28:31.735Z,1.20
2022-08-04T16:31:01.845Z,1.10
2022-08-04T16:33:28.729Z,1.45
2022-08-04T16:36:12.415Z,1.35
2022-08-04T16:38:58.084Z,0.98
2022-08-04T16:41:46.824Z,1.38
2022-08-04T16:44:51.771Z,1.30
2022-08-04T16:47:35.719Z,1.20
2022-08-04T16:50:04.971Z,1.58
2022-08-04T16:52:31.394Z,1.50
2022-08-04T16:54:58.661Z,0.98
2022-08-04T16:57:25.171Z,0.93
2022-08-04T16:59:52.309Z,1.25
2022-08-04T17:02:24.016Z,1.42
2022-08-04T17:05:07.330Z,1.10
2022-08-04T17:08:28.691Z,1.23
2022-08-04T17:10:51.645Z,0.98
2022-08-04T17:14:01.811Z,1.73
2022-08-04T17:16:13.597Z,1.00
2022-08-04T17:18:42.895Z,1.20
2022-08-04T17:21:13.725Z,1.60
2022-08-04T17:24:15.153Z,1.20
2022-08-04T17:26:40.146Z,1.23
2022-08-04T17:29:08.254Z,1.40
2022-08-04T17:31:35.641Z,1.40
2022-08-04T17:34:12.422Z,1.38
2022-08-04T17:36:43.810Z,1.00
2022-08-04T17:39:16.340Z,1.17
2022-08-04T17:41:49.237Z,1.10
2022-08-04T17:44:16.468Z,1.52
2022-08-04T17:46:45.592Z,1.02
2022-08-04T17:49:16.514Z,1.50
2022-08-04T17:52:06.633Z,1.65
2022-08-04T17:54:36.955Z,1.60
2022-08-04T17:57:20.100Z,1.83
2022-08-04T17:59:56.638Z,1.75
2022-08-04T18:05:26.355Z,1.40
2022-08-04T18:08:40.280Z,1.88
2022-08-04T18:10:56.827Z,1.60
2022-08-04T18:13:27.423Z,1.38
2022-08-04T18:16:00.759Z,1.70
2022-08-04T18:18:29.583Z,1.70
2022-08-04T18:20:56.295Z,1.65
2022-08-04T18:23:31.466Z,1.42
2022-08-04T18:25:59.048Z,1.77
2022-08-04T18:28:27.042Z,1.95
2022-08-04T18:30:56.263Z,1.50
2022-08-04T18:33:40.336Z,1.10
2022-08-04T18:36:33.377Z,1.45
2022-08-04T18:38:58.669Z,1.42
2022-08-04T18:41:26.533Z,1.50
2022-08-04T18:43:55.974Z,1.40
2022-08-04T18:46:27.101Z,1.80
2022-08-04T18:48:54.106Z,1.67
2022-08-04T18:51:23.822Z,1.85
2022-08-04T18:53:54.952Z,1.60
2022-08-04T18:56:29.817Z,1.55
2022-08-04T18:58:59.862Z,1.95
2022-08-04T19:01:29.635Z,1.23
2022-08-04T19:03:57.762Z,1.63
2022-08-04T19:06:26.086Z,2.03
2022-08-04T19:08:54.071Z,1.30
2022-08-04T19:11:52.622Z,1.80
2022-08-04T19:14:07.588Z,1.50
2022-08-04T19:19:07.337Z,1.83
2022-08-04T19:22:00.148Z,1.90
2022-08-04T19:24:32.747Z,1.70
2022-08-04T19:27:02.394Z,1.60
2022-08-04T19:29:37.643Z,1.92
2022-08-04T19:32:05.130Z,1.80
2022-08-04T19:34:42.721Z,1.60
2022-08-04T19:37:56.228Z,2.15
2022-08-04T19:40:02.042Z,1.52
2022-08-04T19:42:31.089Z,2.42
2022-08-04T19:44:57.616Z,1.95
2022-08-04T19:48:11.610Z,1.45
2022-08-04T19:50:12.201Z,1.75
2022-08-04T19:52:38.667Z,1.67
2022-08-04T19:55:09.992Z,1.90
2022-08-04T19:57:41.349Z,1.80
2022-08-04T20:00:08.318Z,1.70
2022-08-04T20:02:36.575Z,1.45
2022-08-04T20:05:04.974Z,1.92
2022-08-04T20:07:36.614Z,1.87
2022-08-04T20:10:07.131Z,2.08
2022-08-04T20:12:34.327Z,2.00
2022-08-04T20:15:10.962Z,1.77
2022-08-04T20:18:34.840Z,1.70
2022-08-04T20:20:28.296Z,1.48
2022-08-04T20:22:54.702Z,2.22
2022-08-04T20:25:37.462Z,2.22
2022-08-04T20:28:05.637Z,2.13
2022-08-04T20:30:33.206Z,2.20
2022-08-04T20:33:01.277Z,1.60
2022-08-04T20:35:30.885Z,1.95
2022-08-04T20:38:01.374Z,1.83
2022-08-04T20:40:28.862Z,2.03
2022-08-04T20:42:57.320Z,1.70
2022-08-04T20:45:55.664Z,1.70
2022-08-04T20:48:11.099Z,1.67
2022-08-04T20:50:37.753Z,1.65
2022-08-04T20:53:05.770Z,1.60
2022-08-04T20:55:54.822Z,2.55
2022-08-04T20:58:22.067Z,1.60
2022-08-04T21:00:54.956Z,1.60
2022-08-04T21:03:21.525Z,1.67
2022-08-04T21:06:08.158Z,1.67
2022-08-04T21:08:35.075Z,1.90
2022-08-04T21:11:03.151Z,1.52
2022-08-04T21:13:50.578Z,1.48
2022-08-04T21:16:56.079Z,1.40
2022-08-04T21:19:05.471Z,1.60
2022-08-04T21:21:40.259Z,1.50
2022-08-04T21:24:06.934Z,1.67
2022-08-04T21:26:33.318Z,1.67
2022-08-04T21:28:59.739Z,1.65
2022-08-04T21:31:26.198Z,1.85
2022-08-04T21:33:52.702Z,1.90
2022-08-04T21:36:19.780Z,1.83
2022-08-04T21:38:51.153Z,1.67
2022-08-04T21:41:20.353Z,1.63
2022-08-04T21:43:50.911Z,2.03
2022-08-04T21:46:18.369Z,2.00
2022-08-04T21:48:44.880Z,1.58
2022-08-04T21:51:59.789Z,1.80
2022-08-04T21:54:09.224Z,1.65
2022-08-04T21:56:35.826Z,1.98
2022-08-04T21:59:11.151Z,2.00
2022-08-04T22:01:51.838Z,1.98
2022-08-04T22:04:18.974Z,1.52
2022-08-04T22:06:47.604Z,1.67
2022-08-04T22:09:18.195Z,1.67
2022-08-04T22:11:49.196Z,2.25
2022-08-04T22:14:17.113Z,1.60
2022-08-04T22:16:45.036Z,1.73
2022-08-04T22:19:11.551Z,2.20
2022-08-04T22:21:45.419Z,2.33
2022-08-04T22:24:13.661Z,1.80
2022-08-04T22:26:40.899Z,1.90
2022-08-04T22:29:07.337Z,1.67
2022-08-04T22:31:53.331Z,1.77
2022-08-04T22:34:24.267Z,1.55
2022-08-04T22:36:50.846Z,1.90
2022-08-04T22:39:17.402Z,1.58
2022-08-04T22:41:48.617Z,1.63
2022-08-04T22:44:32.226Z,1.70
2022-08-04T22:46:59.626Z,1.67
2022-08-04T22:49:31.888Z,1.95
2022-08-04T22:51:59.533Z,2.00
2022-08-04T22:54:28.507Z,1.58
2022-08-04T22:56:56.028Z,1.98
2022-08-04T22:59:23.115Z,1.55
2022-08-04T23:01:59.243Z,3.40
2022-08-04T23:04:28.049Z,1.65
2022-08-04T23:06:54.735Z,2.30
2022-08-04T23:09:21.511Z,2.60
2022-08-04T23:11:53.915Z,2.35
2022-08-04T23:14:25.159Z,1.95
2022-08-04T23:16:52.767Z,2.38
2022-08-04T23:19:19.839Z,2.30
2022-08-04T23:22:01.725Z,2.63
2022-08-04T23:24:29.804Z,2.33
2022-08-04T23:26:56.939Z,2.60
2022-08-04T23:29:23.663Z,2.33
2022-08-04T23:31:59.590Z,2.45
2022-08-04T23:34:27.297Z,2.30
2022-08-04T23:36:55.824Z,2.60
2022-08-04T23:39:26.056Z,2.83
2022-08-04T23:42:15.068Z,3.40
2022-08-04T23:44:47.482Z,3.13
2022-08-04T23:48:16.113Z,3.65
2022-08-04T23:50:00.407Z,3.83
2022-08-04T23:52:29.656Z,3.95
2022-08-04T23:54:58.234Z,3.63
2022-08-04T23:57:25.097Z,3.55
2022-08-04T23:59:58.347Z,3.00
